Terminal Aerodrome Forecast
Issued by NWS

Home | Current Version | Previous Version | Text Only | Print | Product List | Glossary On
Versions: 1 2 3 4 5 6 7 8 9 10 11 12 13
000
FTUS44 KEPZ 250021 AAA
TAFLRU
TAF AMD
KLRU 250021Z 2500/2524 10005KT P6SM VCTS SCT110CB SCT140 SCT250
      TEMPO 2500/2503 VRB30G50KT 2SM -TSRA BKN100CB BKN140 BKN200
     FM250400 07006KT P6SM FEW100 SCT140 SCT250
     FM251400 10008KT P6SM SKC
     FM252000 09007KT P6SM FEW100 SCT140=

USA.gov is the U.S. government's official web portal to all federal, state and local government web resources and services.